sensor_id;sensor_type;location;lat;lon;timestamp;P1;durP1;ratioP1;P2;durP2;ratioP2
11037;SDS011;5572;49.540;11.932;2023-09-12T00:00:07;13.20;;;11.50;;
11037;SDS011;5572;49.540;11.932;2023-09-12T00:02:35;13.20;;;11.30;;
11037;SDS011;5572;49.540;11.932;2023-09-12T00:05:01;11.47;;;10.27;;
11037;SDS011;5572;49.540;11.932;2023-09-12T00:07:29;15.37;;;10.20;;
11037;SDS011;5572;49.540;11.932;2023-09-12T00:09:55;11.30;;;10.20;;
11037;SDS011;5572;49.540;11.932;2023-09-12T00:12:22;15.17;;;11.00;;
11037;SDS011;5572;49.540;11.932;2023-09-12T00:14:49;10.63;;;9.63;;
11037;SDS011;5572;49.540;11.932;2023-09-12T00:17:17;10.97;;;9.50;;
11037;SDS011;5572;49.540;11.932;2023-09-12T00:19:44;11.87;;;10.57;;
11037;SDS011;5572;49.540;11.932;2023-09-12T00:22:10;11.53;;;9.50;;
11037;SDS011;5572;49.540;11.932;2023-09-12T00:24:37;12.33;;;10.40;;
11037;SDS011;5572;49.540;11.932;2023-09-12T00:27:04;12.07;;;10.73;;
11037;SDS011;5572;49.540;11.932;2023-09-12T00:29:30;13.27;;;9.80;;
11037;SDS011;5572;49.540;11.932;2023-09-12T00:31:57;11.67;;;10.57;;
11037;SDS011;5572;49.540;11.932;2023-09-12T00:34:25;11.60;;;10.43;;
11037;SDS011;5572;49.540;11.932;2023-09-12T00:36:51;12.07;;;10.87;;
11037;SDS011;5572;49.540;11.932;2023-09-12T00:39:18;10.90;;;9.77;;
11037;SDS011;5572;49.540;11.932;2023-09-12T00:41:44;15.30;;;11.20;;
11037;SDS011;5572;49.540;11.932;2023-09-12T00:44:11;13.57;;;10.73;;
11037;SDS011;5572;49.540;11.932;2023-09-12T00:46:37;11.27;;;9.97;;
11037;SDS011;5572;49.540;11.932;2023-09-12T00:49:04;11.43;;;9.13;;
11037;SDS011;5572;49.540;11.932;2023-09-12T00:51:34;10.90;;;9.80;;
11037;SDS011;5572;49.540;11.932;2023-09-12T00:54:02;12.20;;;11.00;;
11037;SDS011;5572;49.540;11.932;2023-09-12T00:56:29;11.67;;;10.53;;
11037;SDS011;5572;49.540;11.932;2023-09-12T00:58:56;14.70;;;9.73;;
11037;SDS011;5572;49.540;11.932;2023-09-12T01:01:23;10.63;;;9.30;;
11037;SDS011;5572;49.540;11.932;2023-09-12T01:03:50;10.43;;;9.23;;
11037;SDS011;5572;49.540;11.932;2023-09-12T01:06:17;11.07;;;9.97;;
11037;SDS011;5572;49.540;11.932;2023-09-12T01:08:49;10.40;;;9.33;;
11037;SDS011;5572;49.540;11.932;2023-09-12T01:11:15;10.77;;;9.67;;
11037;SDS011;5572;49.540;11.932;2023-09-12T01:13:43;10.03;;;9.13;;
11037;SDS011;5572;49.540;11.932;2023-09-12T01:16:09;13.23;;;9.97;;
11037;SDS011;5572;49.540;11.932;2023-09-12T01:18:36;11.37;;;9.50;;
11037;SDS011;5572;49.540;11.932;2023-09-12T01:21:11;11.03;;;9.90;;
11037;SDS011;5572;49.540;11.932;2023-09-12T01:24:21;10.47;;;8.83;;
11037;SDS011;5572;49.540;11.932;2023-09-12T01:29:59;11.93;;;10.53;;
11037;SDS011;5572;49.540;11.932;2023-09-12T01:32:29;14.10;;;11.10;;
11037;SDS011;5572;49.540;11.932;2023-09-12T01:34:57;12.03;;;9.50;;
11037;SDS011;5572;49.540;11.932;2023-09-12T01:37:24;10.60;;;9.53;;
11037;SDS011;5572;49.540;11.932;2023-09-12T01:39:51;12.07;;;10.17;;
11037;SDS011;5572;49.540;11.932;2023-09-12T01:42:18;11.53;;;10.17;;
11037;SDS011;5572;49.540;11.932;2023-09-12T01:44:49;11.83;;;10.07;;
11037;SDS011;5572;49.540;11.932;2023-09-12T01:47:17;12.30;;;10.53;;
11037;SDS011;5572;49.540;11.932;2023-09-12T01:49:47;8.93;;;8.13;;
11037;SDS011;5572;49.540;11.932;2023-09-12T01:52:16;11.37;;;10.07;;
11037;SDS011;5572;49.540;11.932;2023-09-12T01:54:43;10.93;;;9.77;;
11037;SDS011;5572;49.540;11.932;2023-09-12T01:57:11;11.53;;;10.33;;
11037;SDS011;5572;49.540;11.932;2023-09-12T01:59:38;14.03;;;10.33;;
11037;SDS011;5572;49.540;11.932;2023-09-12T02:02:06;12.33;;;10.50;;
11037;SDS011;5572;49.540;11.932;2023-09-12T02:04:33;13.07;;;10.47;;
11037;SDS011;5572;49.540;11.932;2023-09-12T02:06:59;15.53;;;10.13;;
11037;SDS011;5572;49.540;11.932;2023-09-12T02:09:26;9.90;;;8.97;;
11037;SDS011;5572;49.540;11.932;2023-09-12T02:11:52;11.70;;;10.40;;
11037;SDS011;5572;49.540;11.932;2023-09-12T02:14:19;9.83;;;8.70;;
11037;SDS011;5572;49.540;11.932;2023-09-12T02:16:45;16.63;;;11.43;;
11037;SDS011;5572;49.540;11.932;2023-09-12T02:19:13;18.00;;;11.30;;
11037;SDS011;5572;49.540;11.932;2023-09-12T02:21:40;14.13;;;10.70;;
11037;SDS011;5572;49.540;11.932;2023-09-12T02:24:07;12.30;;;11.00;;
11037;SDS011;5572;49.540;11.932;2023-09-12T02:26:34;11.83;;;10.70;;
11037;SDS011;5572;49.540;11.932;2023-09-12T02:29:02;11.87;;;9.23;;
11037;SDS011;5572;49.540;11.932;2023-09-12T02:31:30;11.60;;;10.33;;
11037;SDS011;5572;49.540;11.932;2023-09-12T02:33:57;10.60;;;9.40;;
11037;SDS011;5572;49.540;11.932;2023-09-12T02:36:25;12.33;;;10.33;;
11037;SDS011;5572;49.540;11.932;2023-09-12T02:38:53;10.13;;;9.13;;
11037;SDS011;5572;49.540;11.932;2023-09-12T02:41:19;12.67;;;9.73;;
11037;SDS011;5572;49.540;11.932;2023-09-12T02:43:46;12.80;;;10.37;;
11037;SDS011;5572;49.540;11.932;2023-09-12T02:46:12;11.07;;;9.30;;
11037;SDS011;5572;49.540;11.932;2023-09-12T02:48:39;11.53;;;10.37;;
11037;SDS011;5572;49.540;11.932;2023-09-12T02:51:05;9.63;;;8.63;;
11037;SDS011;5572;49.540;11.932;2023-09-12T02:53:33;12.07;;;9.97;;
11037;SDS011;5572;49.540;11.932;2023-09-12T02:56:00;10.60;;;8.93;;
11037;SDS011;5572;49.540;11.932;2023-09-12T02:58:27;11.53;;;9.60;;
11037;SDS011;5572;49.540;11.932;2023-09-12T03:00:54;10.90;;;9.80;;
11037;SDS011;5572;49.540;11.932;2023-09-12T03:03:20;12.93;;;11.17;;
11037;SDS011;5572;49.540;11.932;2023-09-12T03:05:47;9.47;;;8.47;;
11037;SDS011;5572;49.540;11.932;2023-09-12T03:08:13;14.23;;;11.27;;
11037;SDS011;5572;49.540;11.932;2023-09-12T03:10:42;10.87;;;9.30;;
11037;SDS011;5572;49.540;11.932;2023-09-12T03:13:08;16.63;;;10.23;;
11037;SDS011;5572;49.540;11.932;2023-09-12T03:15:37;11.87;;;10.67;;
11037;SDS011;5572;49.540;11.932;2023-09-12T03:18:04;9.50;;;8.60;;
11037;SDS011;5572;49.540;11.932;2023-09-12T03:20:31;10.00;;;8.80;;
11037;SDS011;5572;49.540;11.932;2023-09-12T03:22:58;12.80;;;10.00;;
11037;SDS011;5572;49.540;11.932;2023-09-12T03:25:25;10.67;;;9.40;;
11037;SDS011;5572;49.540;11.932;2023-09-12T03:27:53;10.80;;;9.77;;
11037;SDS011;5572;49.540;11.932;2023-09-12T03:30:19;12.20;;;10.20;;
11037;SDS011;5572;49.540;11.932;2023-09-12T03:32:47;13.83;;;10.33;;
11037;SDS011;5572;49.540;11.932;2023-09-12T03:35:13;15.60;;;11.60;;
11037;SDS011;5572;49.540;11.932;2023-09-12T03:37:40;12.20;;;10.23;;
11037;SDS011;5572;49.540;11.932;2023-09-12T03:40:08;11.40;;;10.20;;
11037;SDS011;5572;49.540;11.932;2023-09-12T03:42:36;11.83;;;10.47;;
11037;SDS011;5572;49.540;11.932;2023-09-12T03:45:05;12.57;;;11.13;;
11037;SDS011;5572;49.540;11.932;2023-09-12T03:47:32;11.30;;;10.10;;
11037;SDS011;5572;49.540;11.932;2023-09-12T03:49:59;11.63;;;9.93;;
11037;SDS011;5572;49.540;11.932;2023-09-12T03:52:26;13.47;;;9.93;;
11037;SDS011;5572;49.540;11.932;2023-09-12T03:54:52;14.30;;;9.23;;
11037;SDS011;5572;49.540;11.932;2023-09-12T03:57:19;10.77;;;9.47;;
11037;SDS011;5572;49.540;11.932;2023-09-12T03:59:46;8.63;;;7.83;;
11037;SDS011;5572;49.540;11.932;2023-09-12T04:02:14;10.83;;;8.60;;
11037;SDS011;5572;49.540;11.932;2023-09-12T04:04:41;24.57;;;17.37;;
11037;SDS011;5572;49.540;11.932;2023-09-12T04:07:08;11.40;;;10.23;;
11037;SDS011;5572;49.540;11.932;2023-09-12T04:09:34;10.50;;;9.00;;
11037;SDS011;5572;49.540;11.932;2023-09-12T04:12:01;9.93;;;8.93;;
11037;SDS011;5572;49.540;11.932;2023-09-12T04:14:28;13.03;;;8.73;;
11037;SDS011;5572;49.540;11.932;2023-09-12T04:16:54;10.83;;;9.83;;
11037;SDS011;5572;49.540;11.932;2023-09-12T04:19:22;13.07;;;10.17;;
11037;SDS011;5572;49.540;11.932;2023-09-12T04:21:49;10.30;;;9.37;;
11037;SDS011;5572;49.540;11.932;2023-09-12T04:24:15;11.17;;;10.07;;
11037;SDS011;5572;49.540;11.932;2023-09-12T04:26:42;10.93;;;9.67;;
11037;SDS011;5572;49.540;11.932;2023-09-12T04:29:09;16.57;;;10.63;;
11037;SDS011;5572;49.540;11.932;2023-09-12T04:31:36;9.80;;;8.80;;
11037;SDS011;5572;49.540;11.932;2023-09-12T04:34:03;9.97;;;9.07;;
11037;SDS011;5572;49.540;11.932;2023-09-12T04:36:31;10.23;;;9.27;;
11037;SDS011;5572;49.540;11.932;2023-09-12T04:38:57;13.17;;;10.13;;
11037;SDS011;5572;49.540;11.932;2023-09-12T04:41:24;11.50;;;10.40;;
11037;SDS011;5572;49.540;11.932;2023-09-12T04:43:50;10.30;;;9.30;;
11037;SDS011;5572;49.540;11.932;2023-09-12T04:46:17;14.77;;;11.20;;
11037;SDS011;5572;49.540;11.932;2023-09-12T04:48:43;12.13;;;10.57;;
11037;SDS011;5572;49.540;11.932;2023-09-12T04:51:10;12.90;;;10.47;;
11037;SDS011;5572;49.540;11.932;2023-09-12T04:53:38;12.83;;;9.50;;
11037;SDS011;5572;49.540;11.932;2023-09-12T04:56:05;13.57;;;10.37;;
11037;SDS011;5572;49.540;11.932;2023-09-12T04:58:34;16.03;;;11.23;;
11037;SDS011;5572;49.540;11.932;2023-09-12T05:01:01;12.17;;;10.87;;
11037;SDS011;5572;49.540;11.932;2023-09-12T05:03:28;18.33;;;10.20;;
11037;SDS011;5572;49.540;11.932;2023-09-12T05:05:55;12.47;;;11.03;;
11037;SDS011;5572;49.540;11.932;2023-09-12T05:08:21;12.17;;;10.87;;
11037;SDS011;5572;49.540;11.932;2023-09-12T05:10:54;13.83;;;11.53;;
11037;SDS011;5572;49.540;11.932;2023-09-12T05:13:21;12.60;;;10.67;;
11037;SDS011;5572;49.540;11.932;2023-09-12T05:15:50;16.07;;;12.43;;
11037;SDS011;5572;49.540;11.932;2023-09-12T05:18:19;34.63;;;12.83;;
11037;SDS011;5572;49.540;11.932;2023-09-12T05:20:45;12.50;;;10.60;;
11037;SDS011;5572;49.540;11.932;2023-09-12T05:23:14;12.50;;;10.77;;
11037;SDS011;5572;49.540;11.932;2023-09-12T05:25:40;14.90;;;12.20;;
11037;SDS011;5572;49.540;11.932;2023-09-12T05:28:08;15.50;;;11.80;;
11037;SDS011;5572;49.540;11.932;2023-09-12T05:30:35;14.80;;;12.50;;
11037;SDS011;5572;49.540;11.932;2023-09-12T05:33:04;16.03;;;12.07;;
11037;SDS011;5572;49.540;11.932;2023-09-12T05:35:32;16.17;;;11.60;;
11037;SDS011;5572;49.540;11.932;2023-09-12T05:37:59;14.80;;;11.70;;
11037;SDS011;5572;49.540;11.932;2023-09-12T05:40:29;13.93;;;12.40;;
11037;SDS011;5572;49.540;11.932;2023-09-12T05:42:58;24.37;;;14.33;;
11037;SDS011;5572;49.540;11.932;2023-09-12T05:45:26;17.80;;;13.47;;
11037;SDS011;5572;49.540;11.932;2023-09-12T05:47:54;17.87;;;13.63;;
11037;SDS011;5572;49.540;11.932;2023-09-12T05:50:21;12.37;;;10.60;;
11037;SDS011;5572;49.540;11.932;2023-09-12T05:52:48;11.83;;;10.63;;
11037;SDS011;5572;49.540;11.932;2023-09-12T05:55:14;11.57;;;10.37;;
11037;SDS011;5572;49.540;11.932;2023-09-12T05:57:42;14.97;;;10.90;;
11037;SDS011;5572;49.540;11.932;2023-09-12T06:00:09;11.63;;;10.53;;
11037;SDS011;5572;49.540;11.932;2023-09-12T06:02:38;13.43;;;10.77;;
11037;SDS011;5572;49.540;11.932;2023-09-12T06:05:05;12.30;;;11.10;;
11037;SDS011;5572;49.540;11.932;2023-09-12T06:07:32;12.83;;;10.27;;
11037;SDS011;5572;49.540;11.932;2023-09-12T06:10:00;13.50;;;10.43;;
11037;SDS011;5572;49.540;11.932;2023-09-12T06:12:27;12.57;;;10.67;;
11037;SDS011;5572;49.540;11.932;2023-09-12T06:14:53;13.23;;;11.50;;
11037;SDS011;5572;49.540;11.932;2023-09-12T06:17:20;16.57;;;11.33;;
11037;SDS011;5572;49.540;11.932;2023-09-12T06:19:49;15.30;;;10.90;;
11037;SDS011;5572;49.540;11.932;2023-09-12T06:22:16;12.90;;;11.37;;
11037;SDS011;5572;49.540;11.932;2023-09-12T06:24:43;14.17;;;11.40;;
11037;SDS011;5572;49.540;11.932;2023-09-12T06:27:09;13.83;;;10.50;;
11037;SDS011;5572;49.540;11.932;2023-09-12T06:29:37;14.27;;;10.33;;
11037;SDS011;5572;49.540;11.932;2023-09-12T06:32:04;17.47;;;11.43;;
11037;SDS011;5572;49.540;11.932;2023-09-12T06:34:31;11.63;;;10.43;;
11037;SDS011;5572;49.540;11.932;2023-09-12T06:36:59;15.63;;;12.05;;
11037;SDS011;5572;49.540;11.932;2023-09-12T06:39:25;12.93;;;10.80;;
11037;SDS011;5572;49.540;11.932;2023-09-12T06:41:52;15.70;;;12.85;;
11037;SDS011;5572;49.540;11.932;2023-09-12T06:44:19;21.52;;;13.43;;
11037;SDS011;5572;49.540;11.932;2023-09-12T06:46:45;16.85;;;12.00;;
11037;SDS011;5572;49.540;11.932;2023-09-12T06:49:12;14.05;;;12.52;;
11037;SDS011;5572;49.540;11.932;2023-09-12T06:51:38;14.65;;;11.73;;
11037;SDS011;5572;49.540;11.932;2023-09-12T06:54:06;14.32;;;12.80;;
11037;SDS011;5572;49.540;11.932;2023-09-12T06:56:33;13.65;;;12.30;;
11037;SDS011;5572;49.540;11.932;2023-09-12T06:59:02;14.23;;;12.60;;
11037;SDS011;5572;49.540;11.932;2023-09-12T07:01:29;19.83;;;14.33;;
11037;SDS011;5572;49.540;11.932;2023-09-12T07:03:55;15.17;;;12.00;;
11037;SDS011;5572;49.540;11.932;2023-09-12T07:06:22;14.10;;;11.57;;
11037;SDS011;5572;49.540;11.932;2023-09-12T07:08:49;13.80;;;11.48;;
11037;SDS011;5572;49.540;11.932;2023-09-12T07:11:17;13.30;;;11.80;;
11037;SDS011;5572;49.540;11.932;2023-09-12T07:13:44;16.65;;;13.73;;
11037;SDS011;5572;49.540;11.932;2023-09-12T07:16:11;13.05;;;11.80;;
11037;SDS011;5572;49.540;11.932;2023-09-12T07:18:38;13.18;;;11.88;;
11037;SDS011;5572;49.540;11.932;2023-09-12T07:21:05;13.68;;;12.38;;
11037;SDS011;5572;49.540;11.932;2023-09-12T07:23:32;14.05;;;12.65;;
11037;SDS011;5572;49.540;11.932;2023-09-12T07:25:58;13.90;;;12.60;;
11037;SDS011;5572;49.540;11.932;2023-09-12T07:28:26;13.40;;;12.07;;
11037;SDS011;5572;49.540;11.932;2023-09-12T07:30:55;13.98;;;12.50;;
11037;SDS011;5572;49.540;11.932;2023-09-12T07:33:21;14.05;;;12.65;;
11037;SDS011;5572;49.540;11.932;2023-09-12T07:35:48;13.60;;;12.30;;
11037;SDS011;5572;49.540;11.932;2023-09-12T07:38:17;13.45;;;12.13;;
11037;SDS011;5572;49.540;11.932;2023-09-12T07:40:45;13.88;;;12.48;;
11037;SDS011;5572;49.540;11.932;2023-09-12T07:43:11;18.23;;;13.65;;
11037;SDS011;5572;49.540;11.932;2023-09-12T07:45:39;14.35;;;13.05;;
11037;SDS011;5572;49.540;11.932;2023-09-12T07:48:06;14.65;;;13.35;;
11037;SDS011;5572;49.540;11.932;2023-09-12T07:50:34;19.90;;;13.77;;
11037;SDS011;5572;49.540;11.932;2023-09-12T07:53:03;15.32;;;13.73;;
11037;SDS011;5572;49.540;11.932;2023-09-12T07:55:30;14.75;;;13.10;;
11037;SDS011;5572;49.540;11.932;2023-09-12T07:58:01;15.20;;;12.98;;
11037;SDS011;5572;49.540;11.932;2023-09-12T08:00:27;14.98;;;13.30;;
11037;SDS011;5572;49.540;11.932;2023-09-12T08:02:55;12.63;;;11.48;;
11037;SDS011;5572;49.540;11.932;2023-09-12T08:05:22;15.68;;;14.10;;
11037;SDS011;5572;49.540;11.932;2023-09-12T08:07:48;13.65;;;12.38;;
11037;SDS011;5572;49.540;11.932;2023-09-12T08:10:15;13.48;;;12.18;;
11037;SDS011;5572;49.540;11.932;2023-09-12T08:12:41;13.85;;;12.57;;
11037;SDS011;5572;49.540;11.932;2023-09-12T08:15:08;14.75;;;13.35;;
11037;SDS011;5572;49.540;11.932;2023-09-12T08:17:35;15.05;;;13.60;;
11037;SDS011;5572;49.540;11.932;2023-09-12T08:20:03;21.17;;;12.82;;
11037;SDS011;5572;49.540;11.932;2023-09-12T08:22:31;16.15;;;14.30;;
11037;SDS011;5572;49.540;11.932;2023-09-12T08:24:57;18.95;;;13.88;;
11037;SDS011;5572;49.540;11.932;2023-09-12T08:27:24;18.70;;;12.30;;
11037;SDS011;5572;49.540;11.932;2023-09-12T08:29:51;14.77;;;11.57;;
11037;SDS011;5572;49.540;11.932;2023-09-12T08:32:17;18.67;;;14.07;;
11037;SDS011;5572;49.540;11.932;2023-09-12T08:34:45;14.45;;;13.05;;
11037;SDS011;5572;49.540;11.932;2023-09-12T08:37:13;14.52;;;13.02;;
11037;SDS011;5572;49.540;11.932;2023-09-12T08:39:40;13.52;;;12.32;;
11037;SDS011;5572;49.540;11.932;2023-09-12T08:42:08;15.77;;;13.55;;
11037;SDS011;5572;49.540;11.932;2023-09-12T08:44:38;16.15;;;12.77;;
11037;SDS011;5572;49.540;11.932;2023-09-12T08:47:05;13.38;;;12.07;;
11037;SDS011;5572;49.540;11.932;2023-09-12T08:49:34;13.65;;;12.35;;
11037;SDS011;5572;49.540;11.932;2023-09-12T08:52:01;15.73;;;14.13;;
11037;SDS011;5572;49.540;11.932;2023-09-12T08:54:30;13.88;;;12.57;;
11037;SDS011;5572;49.540;11.932;2023-09-12T08:56:57;16.67;;;12.98;;
11037;SDS011;5572;49.540;11.932;2023-09-12T08:59:23;14.90;;;12.85;;
11037;SDS011;5572;49.540;11.932;2023-09-12T09:01:51;14.18;;;12.77;;
11037;SDS011;5572;49.540;11.932;2023-09-12T09:04:19;14.93;;;12.38;;
11037;SDS011;5572;49.540;11.932;2023-09-12T09:06:46;12.85;;;11.57;;
11037;SDS011;5572;49.540;11.932;2023-09-12T09:09:14;13.27;;;12.07;;
11037;SDS011;5572;49.540;11.932;2023-09-12T09:11:44;19.20;;;12.52;;
11037;SDS011;5572;49.540;11.932;2023-09-12T09:14:11;13.35;;;12.05;;
11037;SDS011;5572;49.540;11.932;2023-09-12T09:16:37;13.32;;;12.23;;
11037;SDS011;5572;49.540;11.932;2023-09-12T09:19:05;14.07;;;12.55;;
11037;SDS011;5572;49.540;11.932;2023-09-12T09:21:35;13.15;;;11.95;;
11037;SDS011;5572;49.540;11.932;2023-09-12T09:24:10;13.48;;;12.18;;
11037;SDS011;5572;49.540;11.932;2023-09-12T09:26:44;13.23;;;11.95;;
11037;SDS011;5572;49.540;11.932;2023-09-12T09:29:13;13.07;;;11.68;;
11037;SDS011;5572;49.540;11.932;2023-09-12T09:31:41;16.83;;;12.70;;
11037;SDS011;5572;49.540;11.932;2023-09-12T09:34:11;14.82;;;13.32;;
11037;SDS011;5572;49.540;11.932;2023-09-12T09:36:42;14.38;;;12.82;;
11037;SDS011;5572;49.540;11.932;2023-09-12T09:39:09;13.65;;;12.30;;
11037;SDS011;5572;49.540;11.932;2023-09-12T09:41:37;13.57;;;12.23;;
11037;SDS011;5572;49.540;11.932;2023-09-12T09:44:06;12.90;;;11.63;;
11037;SDS011;5572;49.540;11.932;2023-09-12T09:46:34;13.70;;;12.40;;
11037;SDS011;5572;49.540;11.932;2023-09-12T09:49:01;16.20;;;12.38;;
11037;SDS011;5572;49.540;11.932;2023-09-12T09:51:29;13.75;;;11.75;;
11037;SDS011;5572;49.540;11.932;2023-09-12T09:53:57;13.10;;;11.70;;
11037;SDS011;5572;49.540;11.932;2023-09-12T09:56:25;13.52;;;12.32;;
11037;SDS011;5572;49.540;11.932;2023-09-12T09:58:52;14.45;;;12.98;;
11037;SDS011;5572;49.540;11.932;2023-09-12T10:01:23;14.32;;;12.27;;
11037;SDS011;5572;49.540;11.932;2023-09-12T10:03:56;16.80;;;12.90;;
11037;SDS011;5572;49.540;11.932;2023-09-12T10:06:24;19.52;;;14.00;;
11037;SDS011;5572;49.540;11.932;2023-09-12T10:08:53;13.23;;;11.93;;
11037;SDS011;5572;49.540;11.932;2023-09-12T10:11:22;14.05;;;12.25;;
11037;SDS011;5572;49.540;11.932;2023-09-12T10:13:52;13.00;;;11.55;;
11037;SDS011;5572;49.540;11.932;2023-09-12T10:16:20;13.55;;;12.25;;
11037;SDS011;5572;49.540;11.932;2023-09-12T10:18:55;13.15;;;11.63;;
11037;SDS011;5572;49.540;11.932;2023-09-12T10:21:27;14.35;;;12.25;;
11037;SDS011;5572;49.540;11.932;2023-09-12T10:23:56;14.98;;;13.57;;
11037;SDS011;5572;49.540;11.932;2023-09-12T10:26:25;13.98;;;12.73;;
11037;SDS011;5572;49.540;11.932;2023-09-12T10:28:53;14.07;;;13.00;;
11037;SDS011;5572;49.540;11.932;2023-09-12T10:31:20;14.00;;;12.65;;
11037;SDS011;5572;49.540;11.932;2023-09-12T10:33:51;16.13;;;12.68;;
11037;SDS011;5572;49.540;11.932;2023-09-12T10:36:18;13.40;;;12.02;;
11037;SDS011;5572;49.540;11.932;2023-09-12T10:38:47;13.52;;;12.32;;
11037;SDS011;5572;49.540;11.932;2023-09-12T10:41:15;13.85;;;12.30;;
11037;SDS011;5572;49.540;11.932;2023-09-12T10:43:43;17.60;;;12.02;;
11037;SDS011;5572;49.540;11.932;2023-09-12T10:46:14;12.63;;;11.40;;
11037;SDS011;5572;49.540;11.932;2023-09-12T10:48:41;13.68;;;12.07;;
11037;SDS011;5572;49.540;11.932;2023-09-12T10:51:09;12.52;;;11.50;;
11037;SDS011;5572;49.540;11.932;2023-09-12T10:53:37;17.10;;;11.82;;
11037;SDS011;5572;49.540;11.932;2023-09-12T10:56:14;13.75;;;11.57;;
11037;SDS011;5572;49.540;11.932;2023-09-12T11:01:37;13.15;;;10.88;;
11037;SDS011;5572;49.540;11.932;2023-09-12T11:06:59;12.18;;;11.00;;
11037;SDS011;5572;49.540;11.932;2023-09-12T11:09:26;13.35;;;12.07;;
11037;SDS011;5572;49.540;11.932;2023-09-12T11:11:57;16.10;;;12.73;;
11037;SDS011;5572;49.540;11.932;2023-09-12T11:14:27;12.50;;;11.40;;
11037;SDS011;5572;49.540;11.932;2023-09-12T11:19:47;13.82;;;12.35;;
11037;SDS011;5572;49.540;11.932;2023-09-12T11:22:25;15.13;;;12.27;;
11037;SDS011;5572;49.540;11.932;2023-09-12T11:24:53;12.75;;;11.45;;
11037;SDS011;5572;49.540;11.932;2023-09-12T11:27:21;12.88;;;11.55;;
11037;SDS011;5572;49.540;11.932;2023-09-12T11:29:49;12.85;;;11.60;;
11037;SDS011;5572;49.540;11.932;2023-09-12T11:32:25;12.63;;;11.35;;
11037;SDS011;5572;49.540;11.932;2023-09-12T11:34:53;12.38;;;11.23;;
11037;SDS011;5572;49.540;11.932;2023-09-12T11:37:25;12.50;;;11.30;;
11037;SDS011;5572;49.540;11.932;2023-09-12T11:39:53;12.05;;;11.02;;
11037;SDS011;5572;49.540;11.932;2023-09-12T11:42:22;14.52;;;12.68;;
11037;SDS011;5572;49.540;11.932;2023-09-12T11:44:51;13.48;;;11.32;;
11037;SDS011;5572;49.540;11.932;2023-09-12T11:47:18;13.68;;;11.90;;
11037;SDS011;5572;49.540;11.932;2023-09-12T11:49:45;15.10;;;11.48;;
11037;SDS011;5572;49.540;11.932;2023-09-12T11:52:12;12.07;;;10.98;;
11037;SDS011;5572;49.540;11.932;2023-09-12T11:54:43;15.00;;;10.82;;
11037;SDS011;5572;49.540;11.932;2023-09-12T11:57:11;12.50;;;11.20;;
11037;SDS011;5572;49.540;11.932;2023-09-12T11:59:40;16.48;;;11.05;;
11037;SDS011;5572;49.540;11.932;2023-09-12T12:02:09;14.13;;;11.10;;
11037;SDS011;5572;49.540;11.932;2023-09-12T12:04:36;15.35;;;11.55;;
11037;SDS011;5572;49.540;11.932;2023-09-12T12:07:03;12.38;;;11.23;;
11037;SDS011;5572;49.540;11.932;2023-09-12T12:09:31;14.07;;;11.15;;
11037;SDS011;5572;49.540;11.932;2023-09-12T12:12:04;11.57;;;10.38;;
11037;SDS011;5572;49.540;11.932;2023-09-12T12:14:35;14.18;;;10.30;;
11037;SDS011;5572;49.540;11.932;2023-09-12T12:17:05;11.88;;;10.68;;
11037;SDS011;5572;49.540;11.932;2023-09-12T12:19:34;12.35;;;10.52;;
11037;SDS011;5572;49.540;11.932;2023-09-12T12:22:01;13.00;;;11.75;;
11037;SDS011;5572;49.540;11.932;2023-09-12T12:24:35;11.48;;;10.40;;
11037;SDS011;5572;49.540;11.932;2023-09-12T12:27:04;11.98;;;10.70;;
11037;SDS011;5572;49.540;11.932;2023-09-12T12:29:32;12.05;;;9.75;;
11037;SDS011;5572;49.540;11.932;2023-09-12T12:31:59;11.88;;;9.57;;
11037;SDS011;5572;49.540;11.932;2023-09-12T12:34:26;11.32;;;9.38;;
11037;SDS011;5572;49.540;11.932;2023-09-12T12:36:53;10.57;;;9.57;;
11037;SDS011;5572;49.540;11.932;2023-09-12T12:39:20;24.45;;;19.98;;
11037;SDS011;5572;49.540;11.932;2023-09-12T12:41:47;11.52;;;9.55;;
11037;SDS011;5572;49.540;11.932;2023-09-12T12:44:15;11.63;;;9.88;;
11037;SDS011;5572;49.540;11.932;2023-09-12T12:46:49;22.98;;;10.40;;
11037;SDS011;5572;49.540;11.932;2023-09-12T12:49:17;10.18;;;9.23;;
11037;SDS011;5572;49.540;11.932;2023-09-12T12:51:44;14.35;;;10.00;;
11037;SDS011;5572;49.540;11.932;2023-09-12T12:54:11;10.82;;;9.75;;
11037;SDS011;5572;49.540;11.932;2023-09-12T12:56:38;11.00;;;9.27;;
11037;SDS011;5572;49.540;11.932;2023-09-12T12:59:05;13.27;;;10.23;;
11037;SDS011;5572;49.540;11.932;2023-09-12T13:01:35;12.77;;;10.13;;
11037;SDS011;5572;49.540;11.932;2023-09-12T13:04:04;11.07;;;9.25;;
11037;SDS011;5572;49.540;11.932;2023-09-12T13:06:32;10.68;;;9.57;;
11037;SDS011;5572;49.540;11.932;2023-09-12T13:09:00;10.43;;;9.52;;
11037;SDS011;5572;49.540;11.932;2023-09-12T13:11:30;12.77;;;9.77;;
11037;SDS011;5572;49.540;11.932;2023-09-12T13:13:56;11.48;;;10.27;;
11037;SDS011;5572;49.540;11.932;2023-09-12T13:16:23;11.07;;;10.00;;
11037;SDS011;5572;49.540;11.932;2023-09-12T13:18:51;10.93;;;9.82;;
11037;SDS011;5572;49.540;11.932;2023-09-12T13:21:18;10.60;;;9.60;;
11037;SDS011;5572;49.540;11.932;2023-09-12T13:23:44;12.27;;;10.05;;
11037;SDS011;5572;49.540;11.932;2023-09-12T13:26:11;11.70;;;10.15;;
11037;SDS011;5572;49.540;11.932;2023-09-12T13:28:38;10.43;;;9.45;;
11037;SDS011;5572;49.540;11.932;2023-09-12T13:31:04;13.15;;;9.50;;
11037;SDS011;5572;49.540;11.932;2023-09-12T13:33:31;10.23;;;9.18;;
11037;SDS011;5572;49.540;11.932;2023-09-12T13:35:59;15.27;;;9.23;;
11037;SDS011;5572;49.540;11.932;2023-09-12T13:38:25;13.85;;;9.60;;
11037;SDS011;5572;49.540;11.932;2023-09-12T13:40:52;10.77;;;9.68;;
11037;SDS011;5572;49.540;11.932;2023-09-12T13:43:19;15.63;;;8.90;;
11037;SDS011;5572;49.540;11.932;2023-09-12T13:45:45;13.18;;;8.93;;
11037;SDS011;5572;49.540;11.932;2023-09-12T13:48:12;10.38;;;9.23;;
11037;SDS011;5572;49.540;11.932;2023-09-12T13:50:39;10.00;;;9.07;;
11037;SDS011;5572;49.540;11.932;2023-09-12T13:53:09;10.02;;;9.02;;
11037;SDS011;5572;49.540;11.932;2023-09-12T13:55:36;11.70;;;9.38;;
11037;SDS011;5572;49.540;11.932;2023-09-12T13:58:03;10.18;;;9.20;;
11037;SDS011;5572;49.540;11.932;2023-09-12T14:00:31;10.25;;;9.25;;
11037;SDS011;5572;49.540;11.932;2023-09-12T14:02:58;12.95;;;10.05;;
11037;SDS011;5572;49.540;11.932;2023-09-12T14:05:25;11.43;;;9.40;;
11037;SDS011;5572;49.540;11.932;2023-09-12T14:07:51;10.95;;;9.88;;
11037;SDS011;5572;49.540;11.932;2023-09-12T14:10:19;15.20;;;10.63;;
11037;SDS011;5572;49.540;11.932;2023-09-12T14:12:46;14.15;;;9.43;;
11037;SDS011;5572;49.540;11.932;2023-09-12T14:15:13;10.23;;;9.20;;
11037;SDS011;5572;49.540;11.932;2023-09-12T14:17:47;16.42;;;10.18;;
11037;SDS011;5572;49.540;11.932;2023-09-12T14:20:14;12.30;;;9.63;;
11037;SDS011;5572;49.540;11.932;2023-09-12T14:22:41;10.73;;;9.55;;
11037;SDS011;5572;49.540;11.932;2023-09-12T14:25:09;22.10;;;9.45;;
11037;SDS011;5572;49.540;11.932;2023-09-12T14:27:41;17.45;;;9.13;;
11037;SDS011;5572;49.540;11.932;2023-09-12T14:30:09;10.15;;;9.15;;
11037;SDS011;5572;49.540;11.932;2023-09-12T14:32:37;10.60;;;9.40;;
11037;SDS011;5572;49.540;11.932;2023-09-12T14:35:04;15.05;;;9.60;;
11037;SDS011;5572;49.540;11.932;2023-09-12T14:37:31;12.05;;;9.50;;
11037;SDS011;5572;49.540;11.932;2023-09-12T14:39:57;12.25;;;8.98;;